KDTW/DTW METAR and TAF weather

Enter ICAO airport designator
Station Type Date Time Source
KDTW METAR 2022/08/12 14:53 UTC NOAA

KDTW 121453Z 05003KT 10SM FEW040 FEW250 23/13 A3023 RMK AO2 SLP235 T02280128 50001


Station Type Date Time Source
KDTW Decoded METAR 2022/08/12 14:53 UTC NOAA

DETROIT METROPOLITAN, MI, United States (KDTW) 42-14N 83-20W 195M
Aug 12, 2022 - 10:53 AM EDT / 2022.08.12 1453 UTC
Wind: from the NE (050 degrees) at 3 MPH (3 KT):0
Visibility: 10 mile(s):0
Sky conditions: mostly clear
Temperature: 73.0 F (22.8 C)
Dew Point: 55.0 F (12.8 C)
Relative Humidity: 53%
Pressure (altimeter): 30.23 in. Hg (1023 hPa)
Pressure tendency: 0.00 inches (0.1 hPa) higher than three hours ago
ob: KDTW 121453Z 05003KT 10SM FEW040 FEW250 23/13 A3023 RMK AO2 SLP235 T02280128 50001
cycle: 15

Station Type Date Time Source
KDTW TAF 2022/08/12 15:52 UTC NOAA

TAF
AMD KDTW 121450Z 1215/1318 36005KT P6SM SKC
FM121800 03006KT P6SM SCT060
FM130200 VRB02KT P6SM BKN250
FM131300 19004KT P6SM SCT070 BKN130 OVC250

Example: see airport list